Ridge, Texas
Current Conditions -  °F | °C
As of 8:55 AM on Monday 24 Nov 2014 (Local Time) from KLHB Reporting Station
Clear Clear  
Wind Chill:   Ceiling: Unl
Heat Index: 10°   Visibility: 10mi
Dew Point:   Wind: 6mph
Humidity: 67%   Direction: 290°WNW
Pressure: 30.09"   Gusts: NA
Location:  31.0654°N, 96.4194°W
Report Text: KLHB 241455Z AUTO 29005KT 10SM CLR 10/04 A3009 RMK AO2 T00970038
Loading
Personal Weather Stations






























Interactive Weather Map New forecast layout! Learn more

10-Day Weather Forecast

Advertisements
Track Severe Weather on mobile